Terminal Aerodrome Forecast
Issued by NWS

Home | Current Version | Previous Version | Graphics & Text | Print | Product List | Glossary On
Versions: 1 2 3 4 5 6 7 8 9 10 11 12 13 14 15 16 17 18 19 20 21
000
FTUS43 KGRB 261125
TAFATW
TAF
KATW 261125Z 2612/2712 18009KT 6SM BR SCT040 SCT150
     FM261300 20009KT P6SM SCT040 BKN120
     FM261700 16011KT P6SM -SHRA BKN040 BKN080
     FM262000 12010KT 6SM -SHRA BKN020 OVC040 WS020/16030KT
      TEMPO 2700/2702 2SM TSRA BR BKN018CB
     FM270300 23008KT 2SM -DZ BR OVC004 WS020/22040KT
     FM271000 23008KT P6SM SCT025 OVC040=

USA.gov is the U.S. government's official web portal to all federal, state and local government web resources and services.